sensor_id;sensor_type;location;lat;lon;timestamp;temperature;humidity
9448;DHT22;4762;48.128;11.376;2023-12-28T00:01:14;2.60;64.90
9448;DHT22;4762;48.128;11.376;2023-12-28T00:03:16;2.60;65.20
9448;DHT22;4762;48.128;11.376;2023-12-28T00:05:18;2.50;64.70
9448;DHT22;4762;48.128;11.376;2023-12-28T00:07:20;2.20;65.10
9448;DHT22;4762;48.128;11.376;2023-12-28T00:09:23;2.30;64.60
9448;DHT22;4762;48.128;11.376;2023-12-28T00:11:25;2.20;65.60
9448;DHT22;4762;48.128;11.376;2023-12-28T00:13:27;2.10;66.80
9448;DHT22;4762;48.128;11.376;2023-12-28T00:15:29;2.10;67.10
9448;DHT22;4762;48.128;11.376;2023-12-28T00:17:31;1.90;67.00
9448;DHT22;4762;48.128;11.376;2023-12-28T00:19:34;2.30;65.60
9448;DHT22;4762;48.128;11.376;2023-12-28T00:21:36;2.10;65.80
9448;DHT22;4762;48.128;11.376;2023-12-28T00:23:38;2.10;65.30
9448;DHT22;4762;48.128;11.376;2023-12-28T00:25:40;2.40;63.60
9448;DHT22;4762;48.128;11.376;2023-12-28T00:27:42;2.30;64.60
9448;DHT22;4762;48.128;11.376;2023-12-28T00:29:45;2.20;64.30
9448;DHT22;4762;48.128;11.376;2023-12-28T00:31:47;2.40;64.70
9448;DHT22;4762;48.128;11.376;2023-12-28T00:33:49;2.30;64.60
9448;DHT22;4762;48.128;11.376;2023-12-28T00:35:51;2.20;63.50
9448;DHT22;4762;48.128;11.376;2023-12-28T00:37:53;2.20;64.30
9448;DHT22;4762;48.128;11.376;2023-12-28T00:39:56;2.30;64.40
9448;DHT22;4762;48.128;11.376;2023-12-28T00:41:58;2.00;65.70
9448;DHT22;4762;48.128;11.376;2023-12-28T00:44:00;1.90;65.30
9448;DHT22;4762;48.128;11.376;2023-12-28T00:46:02;2.10;65.10
9448;DHT22;4762;48.128;11.376;2023-12-28T00:48:05;2.00;65.60
9448;DHT22;4762;48.128;11.376;2023-12-28T00:50:07;1.80;66.40
9448;DHT22;4762;48.128;11.376;2023-12-28T00:52:10;1.60;68.00
9448;DHT22;4762;48.128;11.376;2023-12-28T00:54:12;1.30;68.80
9448;DHT22;4762;48.128;11.376;2023-12-28T00:56:14;0.90;71.30
9448;DHT22;4762;48.128;11.376;2023-12-28T00:58:16;0.80;72.00
9448;DHT22;4762;48.128;11.376;2023-12-28T01:00:18;0.50;72.70
9448;DHT22;4762;48.128;11.376;2023-12-28T01:02:21;0.50;73.00
9448;DHT22;4762;48.128;11.376;2023-12-28T01:04:23;0.40;73.10
9448;DHT22;4762;48.128;11.376;2023-12-28T01:06:25;1.10;69.30
9448;DHT22;4762;48.128;11.376;2023-12-28T01:08:27;1.00;70.30
9448;DHT22;4762;48.128;11.376;2023-12-28T01:10:29;0.60;71.30
9448;DHT22;4762;48.128;11.376;2023-12-28T01:12:32;0.50;72.00
9448;DHT22;4762;48.128;11.376;2023-12-28T01:14:34;0.40;72.50
9448;DHT22;4762;48.128;11.376;2023-12-28T01:16:36;0.20;73.70
9448;DHT22;4762;48.128;11.376;2023-12-28T01:18:38;0.40;74.10
9448;DHT22;4762;48.128;11.376;2023-12-28T01:20:41;0.30;73.30
9448;DHT22;4762;48.128;11.376;2023-12-28T01:22:43;0.70;72.30
9448;DHT22;4762;48.128;11.376;2023-12-28T01:24:46;0.40;72.90
9448;DHT22;4762;48.128;11.376;2023-12-28T01:26:48;0.20;73.60
9448;DHT22;4762;48.128;11.376;2023-12-28T01:28:50;0.10;74.30
9448;DHT22;4762;48.128;11.376;2023-12-28T01:30:52;0.00;74.80
9448;DHT22;4762;48.128;11.376;2023-12-28T01:32:54;0.00;75.20
9448;DHT22;4762;48.128;11.376;2023-12-28T01:34:57;-3276.70;75.70
9448;DHT22;4762;48.128;11.376;2023-12-28T01:36:59;0.00;75.50
9448;DHT22;4762;48.128;11.376;2023-12-28T01:39:01;0.00;74.90
9448;DHT22;4762;48.128;11.376;2023-12-28T01:41:03;0.70;69.00
9448;DHT22;4762;48.128;11.376;2023-12-28T01:43:06;2.40;60.90
9448;DHT22;4762;48.128;11.376;2023-12-28T01:45:08;3.00;59.30
9448;DHT22;4762;48.128;11.376;2023-12-28T01:47:10;2.90;59.40
9448;DHT22;4762;48.128;11.376;2023-12-28T01:49:12;2.80;58.30
9448;DHT22;4762;48.128;11.376;2023-12-28T01:51:15;2.80;59.40
9448;DHT22;4762;48.128;11.376;2023-12-28T01:53:17;2.50;60.00
9448;DHT22;4762;48.128;11.376;2023-12-28T01:55:19;2.70;59.10
9448;DHT22;4762;48.128;11.376;2023-12-28T01:57:21;3.50;55.10
9448;DHT22;4762;48.128;11.376;2023-12-28T01:59:23;4.10;52.90
9448;DHT22;4762;48.128;11.376;2023-12-28T02:01:25;5.10;49.60
9448;DHT22;4762;48.128;11.376;2023-12-28T02:03:28;5.10;48.60
9448;DHT22;4762;48.128;11.376;2023-12-28T02:05:30;5.00;48.30
9448;DHT22;4762;48.128;11.376;2023-12-28T02:07:32;5.40;47.30
9448;DHT22;4762;48.128;11.376;2023-12-28T02:09:34;5.60;46.80
9448;DHT22;4762;48.128;11.376;2023-12-28T02:11:36;5.80;47.00
9448;DHT22;4762;48.128;11.376;2023-12-28T02:13:39;6.00;46.40
9448;DHT22;4762;48.128;11.376;2023-12-28T02:15:41;6.00;46.40
9448;DHT22;4762;48.128;11.376;2023-12-28T02:17:47;6.00;46.00
9448;DHT22;4762;48.128;11.376;2023-12-28T02:19:50;5.90;46.10
9448;DHT22;4762;48.128;11.376;2023-12-28T02:21:52;6.00;46.60
9448;DHT22;4762;48.128;11.376;2023-12-28T02:23:54;6.10;46.40
9448;DHT22;4762;48.128;11.376;2023-12-28T02:25:58;5.90;46.70
9448;DHT22;4762;48.128;11.376;2023-12-28T02:28:00;5.80;47.30
9448;DHT22;4762;48.128;11.376;2023-12-28T02:30:02;5.60;47.50
9448;DHT22;4762;48.128;11.376;2023-12-28T02:32:05;5.40;48.30
9448;DHT22;4762;48.128;11.376;2023-12-28T02:34:12;5.40;48.70
9448;DHT22;4762;48.128;11.376;2023-12-28T02:36:11;5.30;48.40
9448;DHT22;4762;48.128;11.376;2023-12-28T02:38:13;5.20;49.60
9448;DHT22;4762;48.128;11.376;2023-12-28T02:40:15;4.90;50.20
9448;DHT22;4762;48.128;11.376;2023-12-28T02:42:17;4.40;53.20
9448;DHT22;4762;48.128;11.376;2023-12-28T02:44:20;4.10;53.90
9448;DHT22;4762;48.128;11.376;2023-12-28T02:46:22;3.90;55.30
9448;DHT22;4762;48.128;11.376;2023-12-28T02:48:24;3.60;55.90
9448;DHT22;4762;48.128;11.376;2023-12-28T02:50:26;3.30;57.40
9448;DHT22;4762;48.128;11.376;2023-12-28T02:52:28;3.20;58.10
9448;DHT22;4762;48.128;11.376;2023-12-28T02:54:31;2.90;58.60
9448;DHT22;4762;48.128;11.376;2023-12-28T02:56:33;2.50;60.60
9448;DHT22;4762;48.128;11.376;2023-12-28T02:58:35;2.50;59.80
9448;DHT22;4762;48.128;11.376;2023-12-28T03:00:37;2.40;60.20
9448;DHT22;4762;48.128;11.376;2023-12-28T03:02:40;2.50;60.20
9448;DHT22;4762;48.128;11.376;2023-12-28T03:04:42;2.30;61.40
9448;DHT22;4762;48.128;11.376;2023-12-28T03:06:46;2.30;62.70
9448;DHT22;4762;48.128;11.376;2023-12-28T03:08:46;2.00;63.80
9448;DHT22;4762;48.128;11.376;2023-12-28T03:10:48;2.10;63.30
9448;DHT22;4762;48.128;11.376;2023-12-28T03:12:51;2.00;62.40
9448;DHT22;4762;48.128;11.376;2023-12-28T03:14:53;2.20;61.70
9448;DHT22;4762;48.128;11.376;2023-12-28T03:16:55;2.70;59.20
9448;DHT22;4762;48.128;11.376;2023-12-28T03:18:57;3.00;59.50
9448;DHT22;4762;48.128;11.376;2023-12-28T03:20:59;2.70;59.50
9448;DHT22;4762;48.128;11.376;2023-12-28T03:23:02;2.90;58.90
9448;DHT22;4762;48.128;11.376;2023-12-28T03:25:04;2.50;60.60
9448;DHT22;4762;48.128;11.376;2023-12-28T03:27:07;2.50;60.00
9448;DHT22;4762;48.128;11.376;2023-12-28T03:29:10;2.70;57.60
9448;DHT22;4762;48.128;11.376;2023-12-28T03:31:12;3.70;54.10
9448;DHT22;4762;48.128;11.376;2023-12-28T03:33:14;3.90;53.50
9448;DHT22;4762;48.128;11.376;2023-12-28T03:35:16;3.90;53.40
9448;DHT22;4762;48.128;11.376;2023-12-28T03:37:18;4.10;51.10
9448;DHT22;4762;48.128;11.376;2023-12-28T03:39:21;4.40;52.40
9448;DHT22;4762;48.128;11.376;2023-12-28T03:41:23;4.30;50.50
9448;DHT22;4762;48.128;11.376;2023-12-28T03:43:25;4.50;50.00
9448;DHT22;4762;48.128;11.376;2023-12-28T03:45:27;4.60;50.00
9448;DHT22;4762;48.128;11.376;2023-12-28T03:47:29;4.50;49.30
9448;DHT22;4762;48.128;11.376;2023-12-28T03:49:38;4.90;48.70
9448;DHT22;4762;48.128;11.376;2023-12-28T03:51:39;5.00;47.10
9448;DHT22;4762;48.128;11.376;2023-12-28T03:53:42;5.50;45.30
9448;DHT22;4762;48.128;11.376;2023-12-28T03:55:44;5.90;45.40
9448;DHT22;4762;48.128;11.376;2023-12-28T03:57:46;5.40;46.00
9448;DHT22;4762;48.128;11.376;2023-12-28T03:59:48;5.40;46.40
9448;DHT22;4762;48.128;11.376;2023-12-28T04:01:50;5.20;46.40
9448;DHT22;4762;48.128;11.376;2023-12-28T04:03:53;5.50;46.30
9448;DHT22;4762;48.128;11.376;2023-12-28T04:05:55;5.40;46.10
9448;DHT22;4762;48.128;11.376;2023-12-28T04:07:57;5.30;45.80
9448;DHT22;4762;48.128;11.376;2023-12-28T04:09:59;5.40;46.30
9448;DHT22;4762;48.128;11.376;2023-12-28T04:12:01;5.10;47.20
9448;DHT22;4762;48.128;11.376;2023-12-28T04:14:04;4.80;47.70
9448;DHT22;4762;48.128;11.376;2023-12-28T04:16:06;4.70;48.70
9448;DHT22;4762;48.128;11.376;2023-12-28T04:18:08;4.60;49.40
9448;DHT22;4762;48.128;11.376;2023-12-28T04:20:11;4.10;51.10
9448;DHT22;4762;48.128;11.376;2023-12-28T04:22:13;3.80;51.60
9448;DHT22;4762;48.128;11.376;2023-12-28T04:24:15;3.90;50.80
9448;DHT22;4762;48.128;11.376;2023-12-28T04:26:18;3.90;51.70
9448;DHT22;4762;48.128;11.376;2023-12-28T04:28:23;3.90;51.90
9448;DHT22;4762;48.128;11.376;2023-12-28T04:30:25;3.60;53.20
9448;DHT22;4762;48.128;11.376;2023-12-28T04:32:27;3.00;55.20
9448;DHT22;4762;48.128;11.376;2023-12-28T04:34:30;3.20;55.00
9448;DHT22;4762;48.128;11.376;2023-12-28T04:36:32;3.10;55.30
9448;DHT22;4762;48.128;11.376;2023-12-28T04:38:34;3.10;54.60
9448;DHT22;4762;48.128;11.376;2023-12-28T04:40:36;3.10;54.30
9448;DHT22;4762;48.128;11.376;2023-12-28T04:42:38;3.50;53.50
9448;DHT22;4762;48.128;11.376;2023-12-28T04:44:41;3.80;52.00
9448;DHT22;4762;48.128;11.376;2023-12-28T04:46:43;3.80;52.40
9448;DHT22;4762;48.128;11.376;2023-12-28T04:48:45;3.90;51.80
9448;DHT22;4762;48.128;11.376;2023-12-28T04:50:47;3.70;52.60
9448;DHT22;4762;48.128;11.376;2023-12-28T04:52:49;3.80;53.50
9448;DHT22;4762;48.128;11.376;2023-12-28T04:54:52;4.00;51.90
9448;DHT22;4762;48.128;11.376;2023-12-28T04:56:54;4.30;50.10
9448;DHT22;4762;48.128;11.376;2023-12-28T04:58:56;4.50;49.50
9448;DHT22;4762;48.128;11.376;2023-12-28T05:01:00;5.20;47.20
9448;DHT22;4762;48.128;11.376;2023-12-28T05:03:00;5.40;46.90
9448;DHT22;4762;48.128;11.376;2023-12-28T05:05:03;5.60;45.40
9448;DHT22;4762;48.128;11.376;2023-12-28T05:07:05;5.20;45.80
9448;DHT22;4762;48.128;11.376;2023-12-28T05:09:07;5.40;45.90
9448;DHT22;4762;48.128;11.376;2023-12-28T05:11:09;5.30;46.20
9448;DHT22;4762;48.128;11.376;2023-12-28T05:13:12;5.40;46.60
9448;DHT22;4762;48.128;11.376;2023-12-28T05:15:14;5.30;46.50
9448;DHT22;4762;48.128;11.376;2023-12-28T05:17:16;5.10;46.40
9448;DHT22;4762;48.128;11.376;2023-12-28T05:19:18;5.20;46.40
9448;DHT22;4762;48.128;11.376;2023-12-28T05:21:20;5.10;47.10
9448;DHT22;4762;48.128;11.376;2023-12-28T05:23:23;5.00;47.70
9448;DHT22;4762;48.128;11.376;2023-12-28T05:25:25;4.70;47.90
9448;DHT22;4762;48.128;11.376;2023-12-28T05:27:27;4.60;47.80
9448;DHT22;4762;48.128;11.376;2023-12-28T05:29:29;4.70;48.70
9448;DHT22;4762;48.128;11.376;2023-12-28T05:31:31;4.60;48.40
9448;DHT22;4762;48.128;11.376;2023-12-28T05:33:34;4.60;48.60
9448;DHT22;4762;48.128;11.376;2023-12-28T05:35:36;4.40;48.70
9448;DHT22;4762;48.128;11.376;2023-12-28T05:37:38;4.40;49.20
9448;DHT22;4762;48.128;11.376;2023-12-28T05:39:40;4.50;49.10
9448;DHT22;4762;48.128;11.376;2023-12-28T05:41:42;5.00;48.10
9448;DHT22;4762;48.128;11.376;2023-12-28T05:43:45;5.10;47.10
9448;DHT22;4762;48.128;11.376;2023-12-28T05:45:47;5.30;46.40
9448;DHT22;4762;48.128;11.376;2023-12-28T05:47:49;5.60;45.70
9448;DHT22;4762;48.128;11.376;2023-12-28T05:49:51;5.60;45.80
9448;DHT22;4762;48.128;11.376;2023-12-28T05:51:53;5.60;46.10
9448;DHT22;4762;48.128;11.376;2023-12-28T05:53:56;5.50;46.20
9448;DHT22;4762;48.128;11.376;2023-12-28T05:55:58;5.40;46.70
9448;DHT22;4762;48.128;11.376;2023-12-28T05:58:00;5.60;46.60
9448;DHT22;4762;48.128;11.376;2023-12-28T06:00:02;5.10;47.10
9448;DHT22;4762;48.128;11.376;2023-12-28T06:02:05;5.20;47.40
9448;DHT22;4762;48.128;11.376;2023-12-28T06:04:07;4.90;47.90
9448;DHT22;4762;48.128;11.376;2023-12-28T06:06:09;5.00;48.00
9448;DHT22;4762;48.128;11.376;2023-12-28T06:08:11;4.80;48.40
9448;DHT22;4762;48.128;11.376;2023-12-28T06:10:14;4.60;49.60
9448;DHT22;4762;48.128;11.376;2023-12-28T06:12:16;3.90;52.00
9448;DHT22;4762;48.128;11.376;2023-12-28T06:14:18;3.60;53.70
9448;DHT22;4762;48.128;11.376;2023-12-28T06:16:20;3.30;55.10
9448;DHT22;4762;48.128;11.376;2023-12-28T06:18:22;3.00;55.50
9448;DHT22;4762;48.128;11.376;2023-12-28T06:20:25;3.00;56.10
9448;DHT22;4762;48.128;11.376;2023-12-28T06:22:27;2.90;57.00
9448;DHT22;4762;48.128;11.376;2023-12-28T06:24:29;2.50;58.50
9448;DHT22;4762;48.128;11.376;2023-12-28T06:26:31;2.30;58.90
9448;DHT22;4762;48.128;11.376;2023-12-28T06:28:33;2.30;58.90
9448;DHT22;4762;48.128;11.376;2023-12-28T06:30:36;2.30;59.50
9448;DHT22;4762;48.128;11.376;2023-12-28T06:32:38;2.20;59.80
9448;DHT22;4762;48.128;11.376;2023-12-28T06:34:40;2.10;59.20
9448;DHT22;4762;48.128;11.376;2023-12-28T06:36:42;2.30;60.50
9448;DHT22;4762;48.128;11.376;2023-12-28T06:38:44;2.10;59.20
9448;DHT22;4762;48.128;11.376;2023-12-28T06:40:47;2.30;59.30
9448;DHT22;4762;48.128;11.376;2023-12-28T06:42:49;2.30;59.60
9448;DHT22;4762;48.128;11.376;2023-12-28T06:44:51;2.00;59.80
9448;DHT22;4762;48.128;11.376;2023-12-28T06:46:53;1.90;60.20
9448;DHT22;4762;48.128;11.376;2023-12-28T06:48:55;2.20;61.00
9448;DHT22;4762;48.128;11.376;2023-12-28T06:50:58;2.00;61.30
9448;DHT22;4762;48.128;11.376;2023-12-28T06:53:00;2.10;61.50
9448;DHT22;4762;48.128;11.376;2023-12-28T06:55:02;1.90;61.30
9448;DHT22;4762;48.128;11.376;2023-12-28T06:57:04;1.80;62.70
9448;DHT22;4762;48.128;11.376;2023-12-28T06:59:07;1.80;63.30
9448;DHT22;4762;48.128;11.376;2023-12-28T07:01:09;1.80;63.30
9448;DHT22;4762;48.128;11.376;2023-12-28T07:03:11;1.50;63.60
9448;DHT22;4762;48.128;11.376;2023-12-28T07:05:13;1.60;63.60
9448;DHT22;4762;48.128;11.376;2023-12-28T07:07:15;1.60;64.50
9448;DHT22;4762;48.128;11.376;2023-12-28T07:09:18;1.30;65.50
9448;DHT22;4762;48.128;11.376;2023-12-28T07:11:20;1.30;65.70
9448;DHT22;4762;48.128;11.376;2023-12-28T07:13:22;1.00;66.90
9448;DHT22;4762;48.128;11.376;2023-12-28T07:15:24;1.10;66.90
9448;DHT22;4762;48.128;11.376;2023-12-28T07:17:26;1.00;67.40
9448;DHT22;4762;48.128;11.376;2023-12-28T07:19:29;1.10;67.60
9448;DHT22;4762;48.128;11.376;2023-12-28T07:21:31;0.80;67.50
9448;DHT22;4762;48.128;11.376;2023-12-28T07:23:33;1.10;67.90
9448;DHT22;4762;48.128;11.376;2023-12-28T07:25:35;0.80;68.30
9448;DHT22;4762;48.128;11.376;2023-12-28T07:27:37;1.00;69.00
9448;DHT22;4762;48.128;11.376;2023-12-28T07:29:40;0.80;68.80
9448;DHT22;4762;48.128;11.376;2023-12-28T07:31:42;1.10;68.70
9448;DHT22;4762;48.128;11.376;2023-12-28T07:33:44;1.20;68.10
9448;DHT22;4762;48.128;11.376;2023-12-28T07:35:46;1.40;67.90
9448;DHT22;4762;48.128;11.376;2023-12-28T07:37:48;1.40;67.50
9448;DHT22;4762;48.128;11.376;2023-12-28T07:39:51;1.50;67.60
9448;DHT22;4762;48.128;11.376;2023-12-28T07:41:53;1.70;67.30
9448;DHT22;4762;48.128;11.376;2023-12-28T07:43:55;1.70;67.50
9448;DHT22;4762;48.128;11.376;2023-12-28T07:45:57;1.90;66.40
9448;DHT22;4762;48.128;11.376;2023-12-28T07:47:59;1.90;65.90
9448;DHT22;4762;48.128;11.376;2023-12-28T07:50:02;2.10;65.20
9448;DHT22;4762;48.128;11.376;2023-12-28T07:52:05;2.40;65.10
9448;DHT22;4762;48.128;11.376;2023-12-28T07:54:08;2.30;64.50
9448;DHT22;4762;48.128;11.376;2023-12-28T07:56:10;2.60;64.60
9448;DHT22;4762;48.128;11.376;2023-12-28T07:58:12;2.50;63.70
9448;DHT22;4762;48.128;11.376;2023-12-28T08:00:15;2.90;63.00
9448;DHT22;4762;48.128;11.376;2023-12-28T08:02:17;3.10;61.60
9448;DHT22;4762;48.128;11.376;2023-12-28T08:04:19;3.60;60.80
9448;DHT22;4762;48.128;11.376;2023-12-28T08:06:21;3.70;56.40
9448;DHT22;4762;48.128;11.376;2023-12-28T08:08:23;5.00;51.10
9448;DHT22;4762;48.128;11.376;2023-12-28T08:10:26;5.90;48.70
9448;DHT22;4762;48.128;11.376;2023-12-28T08:12:28;6.40;45.90
9448;DHT22;4762;48.128;11.376;2023-12-28T08:14:30;6.80;45.20
9448;DHT22;4762;48.128;11.376;2023-12-28T08:16:32;7.50;43.30
9448;DHT22;4762;48.128;11.376;2023-12-28T08:18:34;7.60;42.80
9448;DHT22;4762;48.128;11.376;2023-12-28T08:20:37;8.10;41.50
9448;DHT22;4762;48.128;11.376;2023-12-28T08:22:39;8.20;41.00
9448;DHT22;4762;48.128;11.376;2023-12-28T08:24:41;8.40;41.00
9448;DHT22;4762;48.128;11.376;2023-12-28T08:26:43;8.60;40.30
9448;DHT22;4762;48.128;11.376;2023-12-28T08:28:45;8.70;40.20
9448;DHT22;4762;48.128;11.376;2023-12-28T08:30:48;8.80;39.30
9448;DHT22;4762;48.128;11.376;2023-12-28T08:32:50;8.80;39.60
9448;DHT22;4762;48.128;11.376;2023-12-28T08:34:52;8.90;39.10
9448;DHT22;4762;48.128;11.376;2023-12-28T08:36:54;9.30;38.30
9448;DHT22;4762;48.128;11.376;2023-12-28T08:38:56;9.50;37.80
9448;DHT22;4762;48.128;11.376;2023-12-28T08:40:59;9.40;38.10
9448;DHT22;4762;48.128;11.376;2023-12-28T08:43:01;9.60;37.90
9448;DHT22;4762;48.128;11.376;2023-12-28T08:45:03;9.70;37.70
9448;DHT22;4762;48.128;11.376;2023-12-28T08:47:05;9.80;37.50
9448;DHT22;4762;48.128;11.376;2023-12-28T08:49:08;9.80;37.90
9448;DHT22;4762;48.128;11.376;2023-12-28T08:51:10;9.80;37.50
9448;DHT22;4762;48.128;11.376;2023-12-28T08:53:12;9.80;37.40
9448;DHT22;4762;48.128;11.376;2023-12-28T08:55:14;9.90;37.90
9448;DHT22;4762;48.128;11.376;2023-12-28T08:57:16;9.90;38.00
9448;DHT22;4762;48.128;11.376;2023-12-28T08:59:19;10.00;37.70
9448;DHT22;4762;48.128;11.376;2023-12-28T09:01:22;10.10;36.80
9448;DHT22;4762;48.128;11.376;2023-12-28T09:03:23;10.20;36.80
9448;DHT22;4762;48.128;11.376;2023-12-28T09:05:25;10.30;36.80
9448;DHT22;4762;48.128;11.376;2023-12-28T09:07:27;10.40;36.20
9448;DHT22;4762;48.128;11.376;2023-12-28T09:09:30;10.40;36.80
9448;DHT22;4762;48.128;11.376;2023-12-28T09:11:32;10.40;35.90
9448;DHT22;4762;48.128;11.376;2023-12-28T09:13:34;10.60;35.70
9448;DHT22;4762;48.128;11.376;2023-12-28T09:15:36;10.70;36.00
9448;DHT22;4762;48.128;11.376;2023-12-28T09:17:38;10.70;35.80
9448;DHT22;4762;48.128;11.376;2023-12-28T09:19:41;10.70;35.90
9448;DHT22;4762;48.128;11.376;2023-12-28T09:21:43;10.80;35.80
9448;DHT22;4762;48.128;11.376;2023-12-28T09:23:45;10.80;35.30
9448;DHT22;4762;48.128;11.376;2023-12-28T09:25:47;10.90;35.20
9448;DHT22;4762;48.128;11.376;2023-12-28T09:27:49;11.00;35.00
9448;DHT22;4762;48.128;11.376;2023-12-28T09:29:52;11.00;35.00
9448;DHT22;4762;48.128;11.376;2023-12-28T09:31:54;11.00;35.10
9448;DHT22;4762;48.128;11.376;2023-12-28T09:33:56;11.30;35.00
9448;DHT22;4762;48.128;11.376;2023-12-28T09:35:58;11.40;34.70
9448;DHT22;4762;48.128;11.376;2023-12-28T09:38:00;11.40;35.00
9448;DHT22;4762;48.128;11.376;2023-12-28T09:40:03;11.60;34.60
9448;DHT22;4762;48.128;11.376;2023-12-28T09:42:06;11.70;34.90
9448;DHT22;4762;48.128;11.376;2023-12-28T09:44:12;11.70;34.70
9448;DHT22;4762;48.128;11.376;2023-12-28T09:46:14;11.70;34.00
9448;DHT22;4762;48.128;11.376;2023-12-28T09:48:17;11.90;33.70
9448;DHT22;4762;48.128;11.376;2023-12-28T09:50:19;12.00;34.10
9448;DHT22;4762;48.128;11.376;2023-12-28T09:52:21;12.10;33.70
9448;DHT22;4762;48.128;11.376;2023-12-28T09:54:24;12.00;33.80
9448;DHT22;4762;48.128;11.376;2023-12-28T09:56:26;12.00;33.80
9448;DHT22;4762;48.128;11.376;2023-12-28T09:58:29;11.90;34.00
9448;DHT22;4762;48.128;11.376;2023-12-28T10:00:31;12.00;34.10
9448;DHT22;4762;48.128;11.376;2023-12-28T10:02:33;12.10;34.10
9448;DHT22;4762;48.128;11.376;2023-12-28T10:04:36;11.90;33.80
9448;DHT22;4762;48.128;11.376;2023-12-28T10:06:37;12.00;33.70
9448;DHT22;4762;48.128;11.376;2023-12-28T10:08:44;12.40;34.00
9448;DHT22;4762;48.128;11.376;2023-12-28T10:10:42;12.50;33.90
9448;DHT22;4762;48.128;11.376;2023-12-28T10:12:45;12.50;33.50
9448;DHT22;4762;48.128;11.376;2023-12-28T10:14:47;12.70;33.50
9448;DHT22;4762;48.128;11.376;2023-12-28T10:16:50;12.60;33.30
9448;DHT22;4762;48.128;11.376;2023-12-28T10:18:55;12.80;33.80
9448;DHT22;4762;48.128;11.376;2023-12-28T10:20:55;13.00;33.10
9448;DHT22;4762;48.128;11.376;2023-12-28T10:22:58;12.80;32.70
9448;DHT22;4762;48.128;11.376;2023-12-28T10:25:01;12.80;33.10
9448;DHT22;4762;48.128;11.376;2023-12-28T10:27:02;12.90;32.50
9448;DHT22;4762;48.128;11.376;2023-12-28T10:29:04;13.00;32.50
9448;DHT22;4762;48.128;11.376;2023-12-28T10:31:07;13.00;32.50
9448;DHT22;4762;48.128;11.376;2023-12-28T10:33:09;12.80;32.10
9448;DHT22;4762;48.128;11.376;2023-12-28T10:35:11;12.80;32.00
9448;DHT22;4762;48.128;11.376;2023-12-28T10:37:13;12.70;32.30
9448;DHT22;4762;48.128;11.376;2023-12-28T10:39:16;12.70;32.70
9448;DHT22;4762;48.128;11.376;2023-12-28T10:41:18;12.60;32.40
9448;DHT22;4762;48.128;11.376;2023-12-28T10:43:20;12.60;32.60
9448;DHT22;4762;48.128;11.376;2023-12-28T10:45:25;12.60;33.20
9448;DHT22;4762;48.128;11.376;2023-12-28T10:47:24;12.70;32.70
9448;DHT22;4762;48.128;11.376;2023-12-28T10:49:26;12.70;32.90
9448;DHT22;4762;48.128;11.376;2023-12-28T10:51:29;12.80;33.10
9448;DHT22;4762;48.128;11.376;2023-12-28T10:53:37;12.70;32.60
9448;DHT22;4762;48.128;11.376;2023-12-28T10:55:47;12.80;33.30
9448;DHT22;4762;48.128;11.376;2023-12-28T10:57:47;12.80;32.90
9448;DHT22;4762;48.128;11.376;2023-12-28T10:59:56;12.70;32.40
9448;DHT22;4762;48.128;11.376;2023-12-28T11:01:54;12.80;32.50
9448;DHT22;4762;48.128;11.376;2023-12-28T11:03:59;12.80;32.70
9448;DHT22;4762;48.128;11.376;2023-12-28T11:06:00;12.70;32.40
9448;DHT22;4762;48.128;11.376;2023-12-28T11:08:02;12.80;32.90
9448;DHT22;4762;48.128;11.376;2023-12-28T11:10:05;12.60;33.00
9448;DHT22;4762;48.128;11.376;2023-12-28T11:12:07;12.60;33.10
9448;DHT22;4762;48.128;11.376;2023-12-28T11:14:10;12.70;32.60
9448;DHT22;4762;48.128;11.376;2023-12-28T11:16:12;12.70;33.30
9448;DHT22;4762;48.128;11.376;2023-12-28T11:18:14;12.90;32.60
9448;DHT22;4762;48.128;11.376;2023-12-28T11:20:16;12.80;32.40
9448;DHT22;4762;48.128;11.376;2023-12-28T11:22:19;12.70;33.00
9448;DHT22;4762;48.128;11.376;2023-12-28T11:24:21;12.80;32.80
9448;DHT22;4762;48.128;11.376;2023-12-28T11:26:23;12.80;32.70
9448;DHT22;4762;48.128;11.376;2023-12-28T11:28:25;12.80;32.60
9448;DHT22;4762;48.128;11.376;2023-12-28T11:30:27;12.80;32.70
9448;DHT22;4762;48.128;11.376;2023-12-28T11:32:33;12.90;33.10
9448;DHT22;4762;48.128;11.376;2023-12-28T11:34:35;12.90;33.20
9448;DHT22;4762;48.128;11.376;2023-12-28T11:36:48;12.90;33.10
9448;DHT22;4762;48.128;11.376;2023-12-28T11:38:48;12.90;33.60
9448;DHT22;4762;48.128;11.376;2023-12-28T11:40:51;12.90;33.30
9448;DHT22;4762;48.128;11.376;2023-12-28T11:42:53;12.90;33.00
9448;DHT22;4762;48.128;11.376;2023-12-28T11:44:55;13.00;33.10
9448;DHT22;4762;48.128;11.376;2023-12-28T11:46:57;13.00;33.20
9448;DHT22;4762;48.128;11.376;2023-12-28T11:49:04;13.00;33.50
9448;DHT22;4762;48.128;11.376;2023-12-28T11:51:05;12.90;33.70
9448;DHT22;4762;48.128;11.376;2023-12-28T11:53:08;13.10;34.30
9448;DHT22;4762;48.128;11.376;2023-12-28T11:55:10;13.10;34.40
9448;DHT22;4762;48.128;11.376;2023-12-28T11:57:12;13.20;33.90
9448;DHT22;4762;48.128;11.376;2023-12-28T11:59:14;13.00;34.30
9448;DHT22;4762;48.128;11.376;2023-12-28T12:01:16;12.80;34.50
9448;DHT22;4762;48.128;11.376;2023-12-28T12:03:19;12.70;34.40
9448;DHT22;4762;48.128;11.376;2023-12-28T12:05:21;12.60;34.20
9448;DHT22;4762;48.128;11.376;2023-12-28T12:07:24;12.60;34.50
9448;DHT22;4762;48.128;11.376;2023-12-28T12:09:25;12.60;34.80
9448;DHT22;4762;48.128;11.376;2023-12-28T12:11:27;12.50;34.80
9448;DHT22;4762;48.128;11.376;2023-12-28T12:13:30;12.60;35.10
9448;DHT22;4762;48.128;11.376;2023-12-28T12:15:32;12.50;34.90
9448;DHT22;4762;48.128;11.376;2023-12-28T12:17:34;12.40;35.10
9448;DHT22;4762;48.128;11.376;2023-12-28T12:19:36;12.30;35.30
9448;DHT22;4762;48.128;11.376;2023-12-28T12:21:39;12.30;35.80
9448;DHT22;4762;48.128;11.376;2023-12-28T12:23:41;12.20;36.10
9448;DHT22;4762;48.128;11.376;2023-12-28T12:25:43;12.10;36.30
9448;DHT22;4762;48.128;11.376;2023-12-28T12:27:45;12.20;37.00
9448;DHT22;4762;48.128;11.376;2023-12-28T12:29:47;11.90;37.20
9448;DHT22;4762;48.128;11.376;2023-12-28T12:31:50;11.90;37.10
9448;DHT22;4762;48.128;11.376;2023-12-28T12:33:56;11.90;37.00
9448;DHT22;4762;48.128;11.376;2023-12-28T12:35:58;11.90;37.40
9448;DHT22;4762;48.128;11.376;2023-12-28T12:38:00;11.80;37.60
9448;DHT22;4762;48.128;11.376;2023-12-28T12:40:03;11.80;37.80
9448;DHT22;4762;48.128;11.376;2023-12-28T12:42:05;11.80;38.10
9448;DHT22;4762;48.128;11.376;2023-12-28T12:44:07;11.80;38.30
9448;DHT22;4762;48.128;11.376;2023-12-28T12:46:10;11.70;38.40
9448;DHT22;4762;48.128;11.376;2023-12-28T12:48:15;11.80;38.50
9448;DHT22;4762;48.128;11.376;2023-12-28T12:50:21;11.80;38.80
9448;DHT22;4762;48.128;11.376;2023-12-28T12:52:25;11.70;39.00
9448;DHT22;4762;48.128;11.376;2023-12-28T12:54:26;11.70;39.50
9448;DHT22;4762;48.128;11.376;2023-12-28T12:56:28;11.70;39.70
9448;DHT22;4762;48.128;11.376;2023-12-28T12:58:30;11.60;39.60
9448;DHT22;4762;48.128;11.376;2023-12-28T13:00:33;11.50;39.90
9448;DHT22;4762;48.128;11.376;2023-12-28T13:02:35;11.40;40.20
9448;DHT22;4762;48.128;11.376;2023-12-28T13:04:38;11.40;40.40
9448;DHT22;4762;48.128;11.376;2023-12-28T13:06:40;11.50;40.30
9448;DHT22;4762;48.128;11.376;2023-12-28T13:08:43;11.40;40.50
9448;DHT22;4762;48.128;11.376;2023-12-28T13:10:45;11.40;40.40
9448;DHT22;4762;48.128;11.376;2023-12-28T13:12:47;11.30;40.80
9448;DHT22;4762;48.128;11.376;2023-12-28T13:14:50;11.30;40.60